Liberty, Illinois
Current Conditions -  °F | °C
As of 6:54 PM on Saturday 25 Oct 2014 (Local Time) from KUIN Reporting Station
Haze Haze  
Wind Chill: 67°   Ceiling: Unl
Heat Index: 67°   Visibility: 1mi
Dew Point: 43°   Wind: 0mph
Humidity: 42%   Direction: NA
Pressure: 30.02"   Gusts: NA
Location:  39.88°N, 91.11°W
Report Text: KUIN 252354Z AUTO 00000KT 1SM HZ CLR 19/06 A3002 RMK AO2 SLP164 T01940061 10250 20194 53001
Loading
Personal Weather Stations






























Interactive Weather Map
Tropical Storm Tracking
New forecast layout! Learn more

10-Day Weather Forecast

Advertisements
Track Severe Weather on mobile